Time;durP1;ratioP1;P1;durP2;ratioP2;P2;SDS_P1;SDS_P2;PMS_P1;PMS_P2;Temp;Humidity;BMP_temperature;BMP_pressure;BME280_temperature;BME280_humidity;BME280_pressure;Samples;Min_cycle;Max_cycle;Signal;HPM_P1;HPM_P2
2022/11/17 00:02:11;;;;;;;;;;;;;;;;;;6226261;22;19915;-91
2022/11/17 00:04:36;;;;;;;;;;;;;;;;;;6226805;22;20268;-90
2022/11/17 00:07:02;;;;;;;;;;;;;;;;;;6252005;22;19965;-89
2022/11/17 00:09:28;;;;;;;;;;;;;;;;;;6251674;22;19953;-91
2022/11/17 00:14:39;;;;;;;;;;;;;;;;;;6251469;22;19911;-90
2022/11/17 00:17:05;;;;;;;;;;;;;;;;;;6226859;22;20028;-89
2022/11/17 00:22:16;;;;;;;;;;;;;;;;;;6251787;22;19965;-89
2022/11/17 00:24:41;;;;;;;;;;;;;;;;;;6226190;22;19911;-90
2022/11/17 00:27:07;;;;;;;;;;;;;;;;;;6251193;22;19911;-90
2022/11/17 00:29:33;;;;;;;;;;;;;;;;;;6252053;22;19911;-89
2022/11/17 00:34:44;;;;;;;;;;;;;;;;;;6251789;22;19911;-90
2022/11/17 00:37:10;;;;;;;;;;;;;;;;;;6225628;22;20206;-90
2022/11/17 00:39:36;;;;;;;;;;;;;;;;;;6225979;22;20277;-90
2022/11/17 00:42:02;;;;;;;;;;;;;;;;;;6251404;22;19915;-89
2022/11/17 00:44:28;;;;;;;;;;;;;;;;;;6225779;22;20321;-90
2022/11/17 00:46:54;;;;;;;;;;;;;;;;;;6226325;22;19958;-91
2022/11/17 00:49:23;;;;;;;;;;;;;;;;;;6251757;22;19915;-91
2022/11/17 00:51:49;;;;;;;;;;;;;;;;;;6226296;22;19919;-90
2022/11/17 00:54:15;;;;;;;;;;;;;;;;;;6251514;22;20048;-89
2022/11/17 00:56:41;;;;;;;;;;;;;;;;;;6250611;22;19939;-89
2022/11/17 00:59:07;;;;;;;;;;;;;;;;;;6251092;22;20237;-89
2022/11/17 01:01:33;;;;;;;;;;;;;;;;;;6250681;22;19915;-88
2022/11/17 01:04:02;;;;;;;;;;;;;;;;;;6251211;22;20210;-89
2022/11/17 01:06:28;;;;;;;;;;;;;;;;;;6251106;22;19911;-90
2022/11/17 01:08:54;;;;;;;;;;;;;;;;;;6225355;22;20328;-89
2022/11/17 01:11:20;;;;;;;;;;;;;;;;;;6225938;22;20002;-88
2022/11/17 01:13:45;;;;;;;;;;;;;;;;;;6225822;22;19910;-88
2022/11/17 01:16:11;;;;;;;;;;;;;;;;;;6225963;22;19922;-89
2022/11/17 01:18:37;;;;;;;;;;;;;;;;;;6226179;22;19985;-89
2022/11/17 01:21:03;;;;;;;;;;;;;;;;;;6251208;22;20036;-88
2022/11/17 01:23:29;;;;;;;;;;;;;;;;;;6225263;22;20045;-89
2022/11/17 01:25:55;;;;;;;;;;;;;;;;;;6225775;22;20313;-88
2022/11/17 01:28:21;;;;;;;;;;;;;;;;;;6252049;22;19938;-89
2022/11/17 01:30:47;;;;;;;;;;;;;;;;;;6252357;22;19966;-87
2022/11/17 01:33:13;;;;;;;;;;;;;;;;;;6230502;22;19911;-88
2022/11/17 01:35:39;;;;;;;;;;;;;;;;;;6257403;22;20244;-86
2022/11/17 01:38:05;;;;;;;;;;;;;;;;;;6257353;22;19911;-89
2022/11/17 01:40:31;;;;;;;;;;;;;;;;;;6255821;22;19911;-88
2022/11/17 01:42:57;;;;;;;;;;;;;;;;;;6229746;22;19911;-89
2022/11/17 01:45:23;;;;;;;;;;;;;;;;;;6255779;22;19961;-88
2022/11/17 01:47:49;;;;;;;;;;;;;;;;;;6254416;22;20033;-88
2022/11/17 01:50:15;;;;;;;;;;;;;;;;;;6253167;22;19911;-88
2022/11/17 01:52:41;;;;;;;;;;;;;;;;;;6227433;22;19934;-88
2022/11/17 01:55:07;;;;;;;;;;;;;;;;;;6254114;22;19953;-89
2022/11/17 01:57:33;;;;;;;;;;;;;;;;;;6229118;22;19918;-90
2022/11/17 01:59:59;;;;;;;;;;;;;;;;;;6254878;22;19911;-89
2022/11/17 02:02:25;;;;;;;;;;;;;;;;;;6230175;22;19915;-89
2022/11/17 02:04:52;;;;;;;;;;;;;;;;;;6256924;22;19934;-89
2022/11/17 02:07:18;;;;;;;;;;;;;;;;;;6232355;22;19950;-89
2022/11/17 02:09:44;;;;;;;;;;;;;;;;;;6256513;22;19918;-89
2022/11/17 02:12:09;;;;;;;;;;;;;;;;;;6230555;22;20229;-89
2022/11/17 02:14:35;;;;;;;;;;;;;;;;;;6255345;22;19957;-89
2022/11/17 02:17:01;;;;;;;;;;;;;;;;;;6252669;22;19915;-90
2022/11/17 02:19:27;;;;;;;;;;;;;;;;;;6224583;22;20352;-89
2022/11/17 02:21:53;;;;;;;;;;;;;;;;;;6249993;22;20292;-90
2022/11/17 02:24:19;;;;;;;;;;;;;;;;;;6224743;22;19990;-88
2022/11/17 02:26:45;;;;;;;;;;;;;;;;;;6224609;22;19918;-89
2022/11/17 02:29:11;;;;;;;;;;;;;;;;;;6250102;22;19957;-90
2022/11/17 02:31:37;;;;;;;;;;;;;;;;;;6250731;22;19918;-89
2022/11/17 02:34:02;;;;;;;;;;;;;;;;;;6250272;22;19911;-90
2022/11/17 02:36:28;;;;;;;;;;;;;;;;;;6250072;22;20348;-89
2022/11/17 02:38:54;;;;;;;;;;;;;;;;;;6224537;22;19915;-90
2022/11/17 02:41:21;;;;;;;;;;;;;;;;;;6249803;22;19922;-89
2022/11/17 02:44:03;;;;;;;;;;;;;;;;;;6224771;22;19911;-90
2022/11/17 02:46:28;;;;;;;;;;;;;;;;;;6249755;22;19991;-89
2022/11/17 02:48:54;;;;;;;;;;;;;;;;;;6249685;22;19951;-89
2022/11/17 02:51:28;;;;;;;;;;;;;;;;;;5111277;27;19943;-89
2022/11/17 02:53:54;;;;;;;;;;;;;;;;;;5093238;28;19924;-89
2022/11/17 02:56:20;;;;;;;;;;;;;;;;;;5109839;28;19930;-90
2022/11/17 02:58:45;;;;;;;;;;;;;;;;;;5109879;28;19924;-89
2022/11/17 03:01:11;;;;;;;;;;;;;;;;;;5110058;28;20367;-90
2022/11/17 03:03:37;;;;;;;;;;;;;;;;;;5093017;28;20492;-89
2022/11/17 03:06:03;;;;;;;;;;;;;;;;;;5109401;28;19926;-89
2022/11/17 03:08:29;;;;;;;;;;;;;;;;;;5109644;28;19924;-89
2022/11/17 03:10:55;;;;;;;;;;;;;;;;;;5092751;28;20205;-90
2022/11/17 03:13:21;;;;;;;;;;;;;;;;;;5109684;28;20026;-89
2022/11/17 03:15:47;;;;;;;;;;;;;;;;;;5109257;28;20018;-89
2022/11/17 03:18:13;;;;;;;;;;;;;;;;;;5092001;28;20014;-89
2022/11/17 03:20:39;;;;;;;;;;;;;;;;;;5092561;28;20020;-89
2022/11/17 03:23:05;;;;;;;;;;;;;;;;;;5109611;28;19927;-90
2022/11/17 03:25:31;;;;;;;;;;;;;;;;;;5109339;28;20157;-89
2022/11/17 03:27:57;;;;;;;;;;;;;;;;;;5109090;28;20317;-88
2022/11/17 03:30:24;;;;;;;;;;;;;;;;;;5108618;28;19923;-88
2022/11/17 03:32:50;;;;;;;;;;;;;;;;;;5091673;28;19928;-88
2022/11/17 03:35:16;;;;;;;;;;;;;;;;;;5108736;28;19920;-89
2022/11/17 03:37:42;;;;;;;;;;;;;;;;;;5109053;28;20007;-90
2022/11/17 03:40:08;;;;;;;;;;;;;;;;;;5108896;28;19985;-89
2022/11/17 03:42:33;;;;;;;;;;;;;;;;;;5091298;28;19945;-88
2022/11/17 03:44:59;;;;;;;;;;;;;;;;;;5108544;28;19924;-89
2022/11/17 03:47:25;;;;;;;;;;;;;;;;;;5091625;28;19920;-90
2022/11/17 03:49:52;;;;;;;;;;;;;;;;;;5098926;28;20302;-88
2022/11/17 03:52:18;;;;;;;;;;;;;;;;;;5111963;28;19920;-88
2022/11/17 03:54:44;;;;;;;;;;;;;;;;;;5129183;27;20011;-89
2022/11/17 03:57:10;;;;;;;;;;;;;;;;;;5112233;28;19919;-89
2022/11/17 03:59:36;;;;;;;;;;;;;;;;;;5128845;28;20333;-90
2022/11/17 04:02:02;;;;;;;;;;;;;;;;;;5102615;28;19923;-89
2022/11/17 04:05:04;;;;;;;;;;;;;;;;;;5097762;28;19919;-88
2022/11/17 04:07:14;;;;;;;;;;;;;;;;;;5115091;28;19919;-89
2022/11/17 04:09:40;;;;;;;;;;;;;;;;;;5098024;28;19927;-89
2022/11/17 04:17:35;;;;;;;;;;;;;;;;;;5114919;28;20023;-90
2022/11/17 04:20:01;;;;;;;;;;;;;;;;;;5114893;28;19963;-90
2022/11/17 04:22:27;;;;;;;;;;;;;;;;;;5098350;28;20351;-89
2022/11/17 04:24:53;;;;;;;;;;;;;;;;;;5115088;28;19930;-89
2022/11/17 04:30:03;;;;;;;;;;;;;;;;;;5114977;28;19996;-91
2022/11/17 04:32:29;;;;;;;;;;;;;;;;;;5115104;28;19966;-89
2022/11/17 04:34:55;;;;;;;;;;;;;;;;;;5097856;28;19971;-90
2022/11/17 04:37:21;;;;;;;;;;;;;;;;;;5098059;28;19931;-90
2022/11/17 04:39:47;;;;;;;;;;;;;;;;;;5097649;28;19972;-90
2022/11/17 04:42:13;;;;;;;;;;;;;;;;;;5115128;28;20115;-89
2022/11/17 04:44:39;;;;;;;;;;;;;;;;;;5114866;28;20401;-90
2022/11/17 04:47:05;;;;;;;;;;;;;;;;;;5097219;28;19927;-89
2022/11/17 04:49:31;;;;;;;;;;;;;;;;;;5113886;28;20407;-90
2022/11/17 04:51:57;;;;;;;;;;;;;;;;;;5115269;28;20304;-89
2022/11/17 04:54:23;;;;;;;;;;;;;;;;;;5114311;28;19920;-90
2022/11/17 04:56:49;;;;;;;;;;;;;;;;;;5114214;28;20413;-90
2022/11/17 04:59:15;;;;;;;;;;;;;;;;;;5097571;28;20354;-90
2022/11/17 05:01:41;;;;;;;;;;;;;;;;;;5097585;28;19920;-90
2022/11/17 05:04:07;;;;;;;;;;;;;;;;;;5114414;28;20207;-91
2022/11/17 05:06:33;;;;;;;;;;;;;;;;;;5114231;28;19926;-90
2022/11/17 05:08:59;;;;;;;;;;;;;;;;;;5097387;28;20525;-89
2022/11/17 05:14:09;;;;;;;;;;;;;;;;;;5113220;28;19927;-89
2022/11/17 05:19:20;;;;;;;;;;;;;;;;;;5113800;28;19920;-90
2022/11/17 05:21:46;;;;;;;;;;;;;;;;;;5097116;28;19920;-89
2022/11/17 05:24:13;;;;;;;;;;;;;;;;;;5097050;28;19934;-90
2022/11/17 05:26:39;;;;;;;;;;;;;;;;;;5096808;28;19920;-89
2022/11/17 05:29:05;;;;;;;;;;;;;;;;;;5113891;28;19919;-90
2022/11/17 05:31:30;;;;;;;;;;;;;;;;;;5113383;28;19923;-91
2022/11/17 05:33:56;;;;;;;;;;;;;;;;;;5097016;28;19919;-90
2022/11/17 05:36:22;;;;;;;;;;;;;;;;;;5113742;28;20036;-90
2022/11/17 05:38:48;;;;;;;;;;;;;;;;;;5096809;28;19919;-90
2022/11/17 05:41:14;;;;;;;;;;;;;;;;;;5113931;28;20287;-88
2022/11/17 05:43:40;;;;;;;;;;;;;;;;;;5096507;28;19927;-89
2022/11/17 05:46:06;;;;;;;;;;;;;;;;;;5096114;28;19965;-90
2022/11/17 05:48:35;;;;;;;;;;;;;;;;;;5096455;28;20431;-90
2022/11/17 05:51:01;;;;;;;;;;;;;;;;;;5096234;28;20374;-90
2022/11/17 05:53:27;;;;;;;;;;;;;;;;;;5113001;28;19927;-89
2022/11/17 05:55:53;;;;;;;;;;;;;;;;;;5096678;28;19977;-89
2022/11/17 05:58:19;;;;;;;;;;;;;;;;;;5113405;28;19927;-89
2022/11/17 06:00:44;;;;;;;;;;;;;;;;;;5113382;28;19920;-89
2022/11/17 06:03:10;;;;;;;;;;;;;;;;;;5096417;28;20065;-89
2022/11/17 06:05:36;;;;;;;;;;;;;;;;;;5096479;28;19964;-89
2022/11/17 06:08:02;;;;;;;;;;;;;;;;;;5095961;28;20077;-88
2022/11/17 06:10:28;;;;;;;;;;;;;;;;;;5096024;28;19928;-89
2022/11/17 06:12:54;;;;;;;;;;;;;;;;;;5112999;28;19920;-90
2022/11/17 06:15:20;;;;;;;;;;;;;;;;;;5112919;28;20279;-90
2022/11/17 06:17:46;;;;;;;;;;;;;;;;;;5095802;28;19920;-89
2022/11/17 06:20:12;;;;;;;;;;;;;;;;;;5096908;28;19978;-89
2022/11/17 06:22:38;;;;;;;;;;;;;;;;;;5096227;28;20010;-89
2022/11/17 06:25:03;;;;;;;;;;;;;;;;;;5098426;28;19920;-90
2022/11/17 06:27:29;;;;;;;;;;;;;;;;;;5096854;28;19931;-91
2022/11/17 06:29:57;;;;;;;;;;;;;;;;;;5112837;28;19924;-90
2022/11/17 06:32:23;;;;;;;;;;;;;;;;;;5095736;28;20014;-89
2022/11/17 06:34:49;;;;;;;;;;;;;;;;;;5095655;28;19993;-91
2022/11/17 06:37:15;;;;;;;;;;;;;;;;;;5112514;28;19966;-90
2022/11/17 06:39:41;;;;;;;;;;;;;;;;;;5095657;28;19927;-89
2022/11/17 06:42:07;;;;;;;;;;;;;;;;;;5095223;28;19920;-90
2022/11/17 06:44:33;;;;;;;;;;;;;;;;;;5113222;28;19924;-89
2022/11/17 06:46:59;;;;;;;;;;;;;;;;;;5112891;28;20306;-90
2022/11/17 06:49:25;;;;;;;;;;;;;;;;;;5095496;28;19920;-89
2022/11/17 06:51:51;;;;;;;;;;;;;;;;;;5095781;28;20355;-89
2022/11/17 06:54:17;;;;;;;;;;;;;;;;;;5112548;28;19924;-90
2022/11/17 06:56:43;;;;;;;;;;;;;;;;;;5095439;28;20010;-89
2022/11/17 06:59:09;;;;;;;;;;;;;;;;;;5095132;28;20375;-88
2022/11/17 07:01:34;;;;;;;;;;;;;;;;;;5112557;28;19967;-89
2022/11/17 07:04:00;;;;;;;;;;;;;;;;;;5112196;28;19959;-89
2022/11/17 07:06:26;;;;;;;;;;;;;;;;;;5094567;28;20404;-89
2022/11/17 07:08:52;;;;;;;;;;;;;;;;;;5095706;28;19920;-88
2022/11/17 07:11:18;;;;;;;;;;;;;;;;;;5094315;28;19979;-88
2022/11/17 07:13:44;;;;;;;;;;;;;;;;;;5095316;28;19990;-90
2022/11/17 07:16:10;;;;;;;;;;;;;;;;;;5095224;28;19931;-89
2022/11/17 07:18:36;;;;;;;;;;;;;;;;;;5095413;28;20371;-88
2022/11/17 07:21:02;;;;;;;;;;;;;;;;;;5112206;28;19927;-89
2022/11/17 07:23:28;;;;;;;;;;;;;;;;;;5094911;28;20028;-89
2022/11/17 07:25:54;;;;;;;;;;;;;;;;;;5093724;28;19920;-87
2022/11/17 07:28:20;;;;;;;;;;;;;;;;;;5095208;28;19980;-89
2022/11/17 07:30:46;;;;;;;;;;;;;;;;;;5094319;28;19919;-89
2022/11/17 07:33:12;;;;;;;;;;;;;;;;;;5094719;28;19939;-88
2022/11/17 07:35:38;;;;;;;;;;;;;;;;;;5111719;28;20011;-88
2022/11/17 07:38:06;;;;;;;;;;;;;;;;;;5097984;28;19928;-88
2022/11/17 07:40:32;;;;;;;;;;;;;;;;;;5115629;28;19978;-88
2022/11/17 07:42:58;;;;;;;;;;;;;;;;;;5098478;28;19967;-89
2022/11/17 07:45:24;;;;;;;;;;;;;;;;;;5115443;28;19974;-89
2022/11/17 07:47:50;;;;;;;;;;;;;;;;;;5098342;28;19924;-89
2022/11/17 07:50:15;;;;;;;;;;;;;;;;;;5115091;28;19930;-88
2022/11/17 07:52:41;;;;;;;;;;;;;;;;;;5115279;28;20370;-88
2022/11/17 07:55:07;;;;;;;;;;;;;;;;;;5115294;28;19927;-89
2022/11/17 07:57:33;;;;;;;;;;;;;;;;;;5115278;28;19920;-89
2022/11/17 07:59:59;;;;;;;;;;;;;;;;;;5115166;28;19927;-89
2022/11/17 08:02:27;;;;;;;;;;;;;;;;;;5098405;28;19919;-90
2022/11/17 08:04:53;;;;;;;;;;;;;;;;;;5115097;28;19926;-90
2022/11/17 08:07:19;;;;;;;;;;;;;;;;;;5115465;28;19925;-92
2022/11/17 08:09:45;;;;;;;;;;;;;;;;;;5089815;28;19985;-93
2022/11/17 08:12:11;;;;;;;;;;;;;;;;;;5097844;28;19924;-91
2022/11/17 08:14:37;;;;;;;;;;;;;;;;;;5078487;28;19923;-90
2022/11/17 08:17:03;;;;;;;;;;;;;;;;;;5102625;28;20267;-90
2022/11/17 08:19:29;;;;;;;;;;;;;;;;;;5084229;28;20337;-92
2022/11/17 08:21:55;;;;;;;;;;;;;;;;;;5111483;28;19920;-90
2022/11/17 08:24:21;;;;;;;;;;;;;;;;;;5094378;28;19920;-88
2022/11/17 08:26:46;;;;;;;;;;;;;;;;;;5111303;28;19920;-90
2022/11/17 08:29:12;;;;;;;;;;;;;;;;;;5094228;28;19960;-89
2022/11/17 08:31:44;;;;;;;;;;;;;;;;;;5111042;28;19919;-90
2022/11/17 08:34:10;;;;;;;;;;;;;;;;;;5094107;28;19930;-90
2022/11/17 08:36:36;;;;;;;;;;;;;;;;;;5093921;28;19920;-86
2022/11/17 08:39:02;;;;;;;;;;;;;;;;;;5093769;28;19943;-89
2022/11/17 08:41:28;;;;;;;;;;;;;;;;;;5094042;28;19920;-93
2022/11/17 08:43:54;;;;;;;;;;;;;;;;;;5111637;28;20290;-93
2022/11/17 08:46:20;;;;;;;;;;;;;;;;;;5100497;28;19920;-93
2022/11/17 08:48:46;;;;;;;;;;;;;;;;;;5097668;28;19924;-90
2022/11/17 08:51:12;;;;;;;;;;;;;;;;;;5097358;28;19931;-91
2022/11/17 08:53:38;;;;;;;;;;;;;;;;;;5097369;28;19950;-90
2022/11/17 08:56:04;;;;;;;;;;;;;;;;;;5097767;28;19970;-92
2022/11/17 08:58:30;;;;;;;;;;;;;;;;;;5097954;28;19998;-91
2022/11/17 09:00:56;;;;;;;;;;;;;;;;;;5097542;28;19920;-91
2022/11/17 09:03:22;;;;;;;;;;;;;;;;;;5097741;28;20278;-91
2022/11/17 09:05:48;;;;;;;;;;;;;;;;;;5097502;28;19920;-91
2022/11/17 09:08:15;;;;;;;;;;;;;;;;;;5080106;28;19927;-92
2022/11/17 09:10:41;;;;;;;;;;;;;;;;;;5111047;28;19978;-91
2022/11/17 09:13:07;;;;;;;;;;;;;;;;;;5110722;28;20048;-91
2022/11/17 09:15:33;;;;;;;;;;;;;;;;;;5111003;28;19927;-91
2022/11/17 09:18:00;;;;;;;;;;;;;;;;;;5110837;28;19924;-92
2022/11/17 09:20:26;;;;;;;;;;;;;;;;;;5110569;28;20410;-92
2022/11/17 09:22:52;;;;;;;;;;;;;;;;;;5110951;28;19920;-93
2022/11/17 09:25:18;;;;;;;;;;;;;;;;;;5113892;28;20008;-91
2022/11/17 09:27:44;;;;;;;;;;;;;;;;;;5096647;28;20193;-94
2022/11/17 09:30:10;;;;;;;;;;;;;;;;;;5097239;28;20371;-91
2022/11/17 09:32:36;;;;;;;;;;;;;;;;;;5097456;28;20325;-92
2022/11/17 09:35:05;;;;;;;;;;;;;;;;;;5098360;28;19920;-91
2022/11/17 09:37:34;;;;;;;;;;;;;;;;;;5097678;28;19919;-93
2022/11/17 09:40:00;;;;;;;;;;;;;;;;;;5097572;28;19926;-93
2022/11/17 09:42:29;;;;;;;;;;;;;;;;;;5112908;28;19923;-94
2022/11/17 09:44:55;;;;;;;;;;;;;;;;;;5095711;28;19920;-93
2022/11/17 09:47:24;;;;;;;;;;;;;;;;;;5110397;28;19927;-94
2022/11/17 09:49:50;;;;;;;;;;;;;;;;;;5112124;28;19928;-93
2022/11/17 09:52:16;;;;;;;;;;;;;;;;;;5110180;28;19997;-93
2022/11/17 09:54:42;;;;;;;;;;;;;;;;;;5094702;28;19926;-90
2022/11/17 09:57:08;;;;;;;;;;;;;;;;;;5075508;28;19920;-90
2022/11/17 09:59:34;;;;;;;;;;;;;;;;;;5092190;28;19920;-90
2022/11/17 10:02:00;;;;;;;;;;;;;;;;;;5075422;28;19924;-90
2022/11/17 10:04:26;;;;;;;;;;;;;;;;;;5076244;28;20321;-91
2022/11/17 10:06:52;;;;;;;;;;;;;;;;;;5075793;28;20382;-91
2022/11/17 10:09:18;;;;;;;;;;;;;;;;;;5075865;28;19978;-92
2022/11/17 10:11:44;;;;;;;;;;;;;;;;;;5093664;28;19963;-90
2022/11/17 10:14:10;;;;;;;;;;;;;;;;;;5095957;28;19923;-90
2022/11/17 10:16:36;;;;;;;;;;;;;;;;;;5095299;28;19919;-89
2022/11/17 10:19:02;;;;;;;;;;;;;;;;;;5095597;28;19926;-89
2022/11/17 10:21:28;;;;;;;;;;;;;;;;;;5095782;28;20359;-90
2022/11/17 10:23:54;;;;;;;;;;;;;;;;;;5095720;28;19920;-89
2022/11/17 10:26:19;;;;;;;;;;;;;;;;;;5108987;28;19924;-90
2022/11/17 10:28:47;;;;;;;;;;;;;;;;;;5108969;28;20314;-91
2022/11/17 10:31:13;;;;;;;;;;;;;;;;;;5092070;28;20020;-90
2022/11/17 10:33:39;;;;;;;;;;;;;;;;;;5109225;28;19975;-94
2022/11/17 10:36:05;;;;;;;;;;;;;;;;;;5109015;28;20404;-92
2022/11/17 10:38:32;;;;;;;;;;;;;;;;;;5109581;28;19920;-90
2022/11/17 10:40:59;;;;;;;;;;;;;;;;;;5109662;28;19920;-91
2022/11/17 10:43:25;;;;;;;;;;;;;;;;;;5108930;28;19928;-91
2022/11/17 10:45:51;;;;;;;;;;;;;;;;;;5110117;28;19916;-91
2022/11/17 10:48:17;;;;;;;;;;;;;;;;;;5092460;28;19945;-91
2022/11/17 10:50:43;;;;;;;;;;;;;;;;;;5109523;28;20014;-92
2022/11/17 10:53:08;;;;;;;;;;;;;;;;;;5109215;28;20013;-90
2022/11/17 10:55:34;;;;;;;;;;;;;;;;;;5091750;28;19920;-90
2022/11/17 10:58:00;;;;;;;;;;;;;;;;;;5108822;28;19939;-90
2022/11/17 11:00:26;;;;;;;;;;;;;;;;;;5109132;28;20363;-91
2022/11/17 11:02:52;;;;;;;;;;;;;;;;;;5110259;28;20263;-91
2022/11/17 11:05:20;;;;;;;;;;;;;;;;;;5109439;28;19926;-91
2022/11/17 11:07:46;;;;;;;;;;;;;;;;;;5109041;28;19920;-92
2022/11/17 11:10:12;;;;;;;;;;;;;;;;;;5108366;28;20442;-91
2022/11/17 11:12:37;;;;;;;;;;;;;;;;;;5111793;28;20291;-90
2022/11/17 11:15:03;;;;;;;;;;;;;;;;;;5113240;28;19927;-91
2022/11/17 11:17:29;;;;;;;;;;;;;;;;;;5112738;28;19928;-90
2022/11/17 11:19:55;;;;;;;;;;;;;;;;;;5113129;28;19927;-92
2022/11/17 11:22:21;;;;;;;;;;;;;;;;;;5113080;28;19927;-91
2022/11/17 11:24:47;;;;;;;;;;;;;;;;;;5113301;28;20040;-90
2022/11/17 11:27:13;;;;;;;;;;;;;;;;;;5112223;28;20469;-89
2022/11/17 11:29:40;;;;;;;;;;;;;;;;;;5112717;28;19924;-89
2022/11/17 11:32:05;;;;;;;;;;;;;;;;;;5112175;28;19969;-91
2022/11/17 11:34:31;;;;;;;;;;;;;;;;;;5113003;28;19924;-90
2022/11/17 11:36:57;;;;;;;;;;;;;;;;;;5112076;28;19920;-89
2022/11/17 11:39:23;;;;;;;;;;;;;;;;;;5111860;28;19916;-88
2022/11/17 11:41:49;;;;;;;;;;;;;;;;;;5112042;28;19945;-90
2022/11/17 11:44:15;;;;;;;;;;;;;;;;;;5111940;28;19924;-91
2022/11/17 11:46:41;;;;;;;;;;;;;;;;;;5111818;28;20367;-90
2022/11/17 11:49:07;;;;;;;;;;;;;;;;;;5111998;28;19968;-91
2022/11/17 11:51:33;;;;;;;;;;;;;;;;;;5094879;28;19924;-90
2022/11/17 11:53:59;;;;;;;;;;;;;;;;;;5112157;28;19974;-89
2022/11/17 11:56:25;;;;;;;;;;;;;;;;;;5111806;28;20264;-89
2022/11/17 11:58:51;;;;;;;;;;;;;;;;;;5106779;28;19967;-89
2022/11/17 12:01:17;;;;;;;;;;;;;;;;;;5089053;28;20014;-89
2022/11/17 12:03:43;;;;;;;;;;;;;;;;;;5089684;28;20333;-89
2022/11/17 12:08:54;;;;;;;;;;;;;;;;;;5104946;28;19931;-90
2022/11/17 12:14:04;;;;;;;;;;;;;;;;;;5114959;28;19924;-89
2022/11/17 12:16:30;;;;;;;;;;;;;;;;;;5097986;28;19965;-90
2022/11/17 12:18:57;;;;;;;;;;;;;;;;;;5115003;28;19927;-92
2022/11/17 12:21:23;;;;;;;;;;;;;;;;;;5098164;28;19967;-90
2022/11/17 12:23:49;;;;;;;;;;;;;;;;;;5114387;28;19920;-90
2022/11/17 12:26:15;;;;;;;;;;;;;;;;;;5097562;28;19927;-90
2022/11/17 12:28:41;;;;;;;;;;;;;;;;;;5097890;28;20319;-89
2022/11/17 12:31:07;;;;;;;;;;;;;;;;;;5097501;28;19923;-90
2022/11/17 12:33:33;;;;;;;;;;;;;;;;;;5098206;28;19920;-92
2022/11/17 12:35:59;;;;;;;;;;;;;;;;;;5098206;28;19927;-90
2022/11/17 12:38:24;;;;;;;;;;;;;;;;;;5097560;28;19915;-89
2022/11/17 12:40:50;;;;;;;;;;;;;;;;;;5114586;28;20317;-88
2022/11/17 12:43:16;;;;;;;;;;;;;;;;;;5111384;28;19923;-89
2022/11/17 12:45:42;;;;;;;;;;;;;;;;;;5093919;28;19919;-89
2022/11/17 12:48:08;;;;;;;;;;;;;;;;;;5114078;28;19920;-89
2022/11/17 12:50:34;;;;;;;;;;;;;;;;;;5114056;28;19931;-89
2022/11/17 12:53:00;;;;;;;;;;;;;;;;;;5096697;28;19931;-90
2022/11/17 12:55:26;;;;;;;;;;;;;;;;;;5113649;28;19915;-89
2022/11/17 12:57:52;;;;;;;;;;;;;;;;;;5096759;28;20366;-89
2022/11/17 13:00:18;;;;;;;;;;;;;;;;;;5096592;28;20314;-89
2022/11/17 13:02:44;;;;;;;;;;;;;;;;;;5096610;28;19928;-91
2022/11/17 13:05:10;;;;;;;;;;;;;;;;;;5096392;28;19973;-92
2022/11/17 13:07:35;;;;;;;;;;;;;;;;;;5096981;28;20008;-91
2022/11/17 13:10:01;;;;;;;;;;;;;;;;;;5096720;28;20001;-91
2022/11/17 13:12:27;;;;;;;;;;;;;;;;;;5097189;28;19980;-91
2022/11/17 13:14:54;;;;;;;;;;;;;;;;;;5097305;28;19968;-90
2022/11/17 13:17:20;;;;;;;;;;;;;;;;;;5096747;28;19927;-90
2022/11/17 13:19:46;;;;;;;;;;;;;;;;;;5096640;28;19919;-90
2022/11/17 13:22:15;;;;;;;;;;;;;;;;;;5094089;28;20304;-89
2022/11/17 13:24:41;;;;;;;;;;;;;;;;;;5096564;28;19927;-89
2022/11/17 13:27:07;;;;;;;;;;;;;;;;;;5096188;28;19919;-89
2022/11/17 13:29:33;;;;;;;;;;;;;;;;;;5095503;28;20236;-90
2022/11/17 13:31:59;;;;;;;;;;;;;;;;;;5095754;28;19927;-90
2022/11/17 13:34:25;;;;;;;;;;;;;;;;;;5092105;28;20427;-89
2022/11/17 13:36:51;;;;;;;;;;;;;;;;;;5075549;28;19927;-89
2022/11/17 13:39:17;;;;;;;;;;;;;;;;;;5092637;28;19920;-89
2022/11/17 13:41:43;;;;;;;;;;;;;;;;;;5075661;28;20007;-91
2022/11/17 13:44:09;;;;;;;;;;;;;;;;;;5076025;28;19971;-90
2022/11/17 13:46:35;;;;;;;;;;;;;;;;;;5075867;28;19945;-91
2022/11/17 13:49:04;;;;;;;;;;;;;;;;;;5092874;28;20023;-89
2022/11/17 13:51:33;;;;;;;;;;;;;;;;;;5074931;28;20001;-90
2022/11/17 13:53:59;;;;;;;;;;;;;;;;;;5075535;28;20097;-90
2022/11/17 13:56:25;;;;;;;;;;;;;;;;;;5075490;28;19920;-91
2022/11/17 13:58:51;;;;;;;;;;;;;;;;;;5075759;28;19926;-90
2022/11/17 14:01:18;;;;;;;;;;;;;;;;;;5092095;28;19983;-89
2022/11/17 14:03:44;;;;;;;;;;;;;;;;;;5091998;28;19924;-89
2022/11/17 14:06:10;;;;;;;;;;;;;;;;;;5074655;28;19924;-89
2022/11/17 14:08:36;;;;;;;;;;;;;;;;;;5075044;28;19927;-90
2022/11/17 14:11:02;;;;;;;;;;;;;;;;;;5075084;28;19931;-90
2022/11/17 14:13:28;;;;;;;;;;;;;;;;;;5091899;28;19920;-90
2022/11/17 14:15:54;;;;;;;;;;;;;;;;;;5074951;28;20119;-90
2022/11/17 14:18:20;;;;;;;;;;;;;;;;;;5074725;28;19927;-89
2022/11/17 14:20:46;;;;;;;;;;;;;;;;;;5091520;28;19924;-89
2022/11/17 14:23:14;;;;;;;;;;;;;;;;;;5088473;28;19920;-91
2022/11/17 14:25:40;;;;;;;;;;;;;;;;;;5095755;28;19975;-89
2022/11/17 14:28:06;;;;;;;;;;;;;;;;;;5095691;28;19974;-89
2022/11/17 14:30:32;;;;;;;;;;;;;;;;;;5108700;28;20028;-90
2022/11/17 14:32:58;;;;;;;;;;;;;;;;;;5108698;28;19920;-89
2022/11/17 14:35:23;;;;;;;;;;;;;;;;;;5108549;28;20040;-89
2022/11/17 14:37:49;;;;;;;;;;;;;;;;;;5108766;28;19931;-89
2022/11/17 14:40:16;;;;;;;;;;;;;;;;;;5109021;28;19920;-89
2022/11/17 14:42:42;;;;;;;;;;;;;;;;;;5108643;28;19920;-89
2022/11/17 14:45:08;;;;;;;;;;;;;;;;;;5108673;28;19920;-89
2022/11/17 14:47:34;;;;;;;;;;;;;;;;;;5108553;28;19924;-90
2022/11/17 14:50:00;;;;;;;;;;;;;;;;;;5109078;28;19932;-90
2022/11/17 14:52:26;;;;;;;;;;;;;;;;;;5109122;28;20264;-90
2022/11/17 14:54:52;;;;;;;;;;;;;;;;;;5112390;28;20058;-89
2022/11/17 14:57:18;;;;;;;;;;;;;;;;;;5110625;28;20049;-90
2022/11/17 14:59:44;;;;;;;;;;;;;;;;;;5110999;28;20275;-90
2022/11/17 15:02:09;;;;;;;;;;;;;;;;;;5110578;28;19924;-90
2022/11/17 15:04:35;;;;;;;;;;;;;;;;;;5111096;28;19920;-90
2022/11/17 15:07:02;;;;;;;;;;;;;;;;;;5094192;28;19927;-90
2022/11/17 15:09:28;;;;;;;;;;;;;;;;;;5093284;28;19920;-89
2022/11/17 15:11:54;;;;;;;;;;;;;;;;;;5111356;28;19921;-93
2022/11/17 15:14:19;;;;;;;;;;;;;;;;;;5111072;28;19931;-91
2022/11/17 15:16:45;;;;;;;;;;;;;;;;;;5110554;28;20029;-90
2022/11/17 15:19:11;;;;;;;;;;;;;;;;;;5093822;28;20364;-91
2022/11/17 15:21:37;;;;;;;;;;;;;;;;;;5110525;28;19920;-91
2022/11/17 15:24:05;;;;;;;;;;;;;;;;;;5094116;28;20330;-91
2022/11/17 15:26:31;;;;;;;;;;;;;;;;;;5109540;28;19932;-89
2022/11/17 15:28:57;;;;;;;;;;;;;;;;;;5109866;28;19999;-90
2022/11/17 15:31:22;;;;;;;;;;;;;;;;;;5112074;28;19975;-90
2022/11/17 15:33:48;;;;;;;;;;;;;;;;;;5110001;28;19920;-90
2022/11/17 15:36:14;;;;;;;;;;;;;;;;;;5091986;28;20359;-89
2022/11/17 15:38:40;;;;;;;;;;;;;;;;;;5108887;28;19967;-89
2022/11/17 15:41:06;;;;;;;;;;;;;;;;;;5108486;28;19920;-90
2022/11/17 15:43:32;;;;;;;;;;;;;;;;;;5108815;28;20421;-89
2022/11/17 15:45:58;;;;;;;;;;;;;;;;;;5112017;28;19927;-88
2022/11/17 15:48:24;;;;;;;;;;;;;;;;;;5084210;28;20053;-89
2022/11/17 15:50:50;;;;;;;;;;;;;;;;;;5090671;28;20376;-89
2022/11/17 15:53:16;;;;;;;;;;;;;;;;;;5107804;28;19927;-89
2022/11/17 15:55:41;;;;;;;;;;;;;;;;;;5100653;28;19927;-89
2022/11/17 15:58:07;;;;;;;;;;;;;;;;;;5092900;28;19920;-91
2022/11/17 16:00:34;;;;;;;;;;;;;;;;;;5077470;28;19927;-88
2022/11/17 16:03:00;;;;;;;;;;;;;;;;;;5077563;28;19974;-89
2022/11/17 16:05:26;;;;;;;;;;;;;;;;;;5094494;28;20371;-89
2022/11/17 16:07:52;;;;;;;;;;;;;;;;;;5087661;28;19968;-89
2022/11/17 16:10:18;;;;;;;;;;;;;;;;;;5114603;28;20002;-89
2022/11/17 16:12:44;;;;;;;;;;;;;;;;;;5114802;28;20011;-89
2022/11/17 16:15:10;;;;;;;;;;;;;;;;;;5114602;28;19924;-89
2022/11/17 16:17:36;;;;;;;;;;;;;;;;;;5082081;28;20368;-89
2022/11/17 16:20:02;;;;;;;;;;;;;;;;;;5103192;28;19968;-89
2022/11/17 16:22:28;;;;;;;;;;;;;;;;;;5093913;28;20353;-89
2022/11/17 16:24:53;;;;;;;;;;;;;;;;;;5078645;28;19920;-89
2022/11/17 16:27:19;;;;;;;;;;;;;;;;;;5093624;28;19933;-89
2022/11/17 16:29:45;;;;;;;;;;;;;;;;;;5093602;28;19927;-89
2022/11/17 16:32:11;;;;;;;;;;;;;;;;;;5093647;28;19928;-89
2022/11/17 16:34:39;;;;;;;;;;;;;;;;;;5095531;28;20333;-90
2022/11/17 16:37:05;;;;;;;;;;;;;;;;;;5078849;28;19927;-89
2022/11/17 16:39:31;;;;;;;;;;;;;;;;;;5087645;28;19916;-89
2022/11/17 16:41:59;;;;;;;;;;;;;;;;;;5110399;28;19920;-91
2022/11/17 16:44:24;;;;;;;;;;;;;;;;;;5110472;28;19935;-90
2022/11/17 16:46:50;;;;;;;;;;;;;;;;;;5111958;28;20035;-90
2022/11/17 16:49:16;;;;;;;;;;;;;;;;;;5110855;28;19945;-89
2022/11/17 16:51:42;;;;;;;;;;;;;;;;;;5093157;28;20359;-89
2022/11/17 16:54:08;;;;;;;;;;;;;;;;;;5111011;28;20064;-89
2022/11/17 16:56:34;;;;;;;;;;;;;;;;;;5110386;28;20317;-89
2022/11/17 16:59:00;;;;;;;;;;;;;;;;;;5093063;28;20014;-89
2022/11/17 17:01:26;;;;;;;;;;;;;;;;;;5093140;28;19920;-90
2022/11/17 17:03:52;;;;;;;;;;;;;;;;;;5092936;28;19920;-89
2022/11/17 17:06:18;;;;;;;;;;;;;;;;;;5092832;28;20422;-87